PRIVATE WETTERSTATION BILLIGHEIM-ALLFELD                       ZURCK
Wetterdaten: Montag, 31.01.2022
Datum Zeit Temp. A. Temp. A. min Temp. A. max Feuchte A. Luftdruck Regen Wind Richtung Richtung Sonnenschein ET Solar Taupunkt Windchill Windben Empfang
31.01.2022 00:00 0,4 C 0,4 C 0,6 C 88 % 1021,4 hPa 0,0 l/m 4,8 km/h (1 Bft) SO 135 0 min 0,000 mm 0 W/m -1,3 C 0,4 C 8,0 km/h (2 Bft) 100 %
31.01.2022 00:10 0,1 C 0,1 C 0,4 C 89 % 1021,5 hPa 0,0 l/m 3,2 km/h (1 Bft) S-SO 157 0 min 0,000 mm 0 W/m -1,5 C 0,1 C 6,4 km/h (2 Bft) 100 %
31.01.2022 00:20 0,0 C 0,0 C 0,1 C 90 % 1021,4 hPa 0,0 l/m 3,2 km/h (1 Bft) S-SO 157 0 min 0,000 mm 0 W/m -1,4 C 0,0 C 8,0 km/h (2 Bft) 100 %
31.01.2022 00:30 0,1 C 0,0 C 0,1 C 90 % 1021,4 hPa 0,0 l/m 3,2 km/h (1 Bft) S-SO 157 0 min 0,000 mm 0 W/m -1,3 C 0,1 C 6,4 km/h (2 Bft) 100 %
31.01.2022 00:40 0,1 C 0,1 C 0,1 C 90 % 1021,5 hPa 0,0 l/m 3,2 km/h (1 Bft) S-SO 157 0 min 0,000 mm 0 W/m -1,3 C 0,1 C 6,4 km/h (2 Bft) 100 %
31.01.2022 00:50 0,0 C 0,0 C 0,1 C 90 % 1021,1 hPa 0,0 l/m 3,2 km/h (1 Bft) S 180 0 min 0,000 mm 0 W/m -1,4 C 0,0 C 6,4 km/h (2 Bft) 100 %
31.01.2022 01:00 0,1 C 0,0 C 0,1 C 90 % 1020,8 hPa 0,0 l/m 4,8 km/h (1 Bft) S 180 0 min 0,000 mm 0 W/m -1,3 C 0,1 C 9,7 km/h (2 Bft) 100 %
31.01.2022 01:10 0,3 C 0,1 C 0,3 C 89 % 1021,2 hPa 0,0 l/m 4,8 km/h (1 Bft) SW 225 0 min 0,000 mm 0 W/m -1,3 C 0,3 C 11,3 km/h (2 Bft) 100 %
31.01.2022 01:20 0,4 C 0,3 C 0,4 C 89 % 1020,4 hPa 0,0 l/m 1,6 km/h (1 Bft) SW 225 0 min 0,000 mm 0 W/m -1,2 C 0,4 C 6,4 km/h (2 Bft) 100 %
31.01.2022 01:30 0,4 C 0,4 C 0,4 C 89 % 1019,9 hPa 0,0 l/m 4,8 km/h (1 Bft) SW 225 0 min 0,000 mm 0 W/m -1,2 C 0,4 C 9,7 km/h (2 Bft) 100 %
31.01.2022 01:40 0,5 C 0,4 C 0,5 C 89 % 1020,1 hPa 0,0 l/m 3,2 km/h (1 Bft) S-SW 202 0 min 0,000 mm 0 W/m -1,1 C 0,5 C 4,8 km/h (1 Bft) 100 %
31.01.2022 01:50 0,6 C 0,5 C 0,6 C 89 % 1019,8 hPa 0,0 l/m 1,6 km/h (1 Bft) S-SW 202 0 min 0,000 mm 0 W/m -1,0 C 0,6 C 4,8 km/h (1 Bft) 100 %
31.01.2022 02:00 0,6 C 0,6 C 0,6 C 88 % 1019,8 hPa 0,0 l/m 1,6 km/h (1 Bft) S-SW 202 0 min 0,000 mm 0 W/m -1,2 C 0,6 C 3,2 km/h (1 Bft) 100 %
31.01.2022 02:10 0,6 C 0,6 C 0,6 C 89 % 1019,3 hPa 0,0 l/m 1,6 km/h (1 Bft) S-SW 202 0 min 0,000 mm 0 W/m -1,0 C 0,6 C 6,4 km/h (2 Bft) 100 %
31.01.2022 02:20 0,6 C 0,6 C 0,6 C 89 % 1018,6 hPa 0,0 l/m 4,8 km/h (1 Bft) S 180 0 min 0,000 mm 0 W/m -1,0 C 0,6 C 9,7 km/h (2 Bft) 100 %
31.01.2022 02:30 0,6 C 0,6 C 0,6 C 89 % 1018,3 hPa 0,0 l/m 4,8 km/h (1 Bft) S-SO 157 0 min 0,000 mm 0 W/m -1,0 C 0,6 C 11,3 km/h (2 Bft) 100 %
31.01.2022 02:40 0,6 C 0,6 C 0,6 C 89 % 1017,9 hPa 0,0 l/m 6,4 km/h (2 Bft) S 180 0 min 0,000 mm 0 W/m -1,0 C 0,6 C 9,7 km/h (2 Bft) 100 %
31.01.2022 02:50 0,6 C 0,6 C 0,6 C 89 % 1017,3 hPa 0,0 l/m 8,0 km/h (2 Bft) S-SO 157 0 min 0,000 mm 0 W/m -1,0 C -1,0 C 14,5 km/h (3 Bft) 100 %
31.01.2022 03:00 0,6 C 0,6 C 0,6 C 89 % 1017,0 hPa 0,0 l/m 6,4 km/h (2 Bft) S-SO 157 0 min 0,000 mm 0 W/m -1,0 C 0,6 C 14,5 km/h (3 Bft) 100 %
31.01.2022 03:10 0,6 C 0,6 C 0,6 C 89 % 1016,8 hPa 0,0 l/m 6,4 km/h (2 Bft) S 180 0 min 0,000 mm 0 W/m -1,0 C 0,6 C 14,5 km/h (3 Bft) 100 %
31.01.2022 03:20 0,6 C 0,5 C 0,6 C 90 % 1016,6 hPa 0,0 l/m 6,4 km/h (2 Bft) S-SW 202 0 min 0,000 mm 0 W/m -0,8 C 0,6 C 14,5 km/h (3 Bft) 100 %
31.01.2022 03:30 0,7 C 0,6 C 0,7 C 90 % 1015,9 hPa 0,0 l/m 9,7 km/h (2 Bft) S-SW 202 0 min 0,000 mm 0 W/m -0,7 C -2,4 C 19,3 km/h (3 Bft) 100 %
31.01.2022 03:40 0,9 C 0,7 C 0,9 C 89 % 1015,5 hPa 0,0 l/m 11,3 km/h (2 Bft) S-SW 202 0 min 0,000 mm 0 W/m -0,7 C -3,5 C 22,5 km/h (4 Bft) 100 %
31.01.2022 03:50 1,1 C 0,9 C 1,1 C 89 % 1015,3 hPa 0,0 l/m 11,3 km/h (2 Bft) S-SW 202 0 min 0,000 mm 0 W/m -0,5 C -3,2 C 24,1 km/h (4 Bft) 100 %
31.01.2022 04:00 1,2 C 1,1 C 1,2 C 88 % 1015,2 hPa 0,0 l/m 16,1 km/h (3 Bft) S-SW 202 0 min 0,000 mm 0 W/m -0,6 C -6,1 C 30,6 km/h (5 Bft) 100 %
31.01.2022 04:10 1,2 C 1,2 C 1,2 C 88 % 1014,6 hPa 0,0 l/m 12,9 km/h (3 Bft) S-SW 202 0 min 0,000 mm 0 W/m -0,6 C -4,2 C 24,1 km/h (4 Bft) 100 %
31.01.2022 04:20 1,2 C 1,2 C 1,2 C 88 % 1014,1 hPa 0,0 l/m 12,9 km/h (3 Bft) S-SW 202 0 min 0,000 mm 0 W/m -0,6 C -4,2 C 27,4 km/h (4 Bft) 91 %
31.01.2022 04:30 1,3 C 1,2 C 1,3 C 88 % 1014,4 hPa 0,0 l/m 12,9 km/h (3 Bft) S-SW 202 0 min 0,000 mm 0 W/m -0,5 C -4,1 C 20,9 km/h (4 Bft) 100 %
31.01.2022 04:40 1,4 C 1,3 C 1,4 C 88 % 1014,5 hPa 0,0 l/m 11,3 km/h (2 Bft) SW 225 0 min 0,000 mm 0 W/m -0,4 C -2,9 C 25,7 km/h (4 Bft) 100 %
31.01.2022 04:50 1,4 C 1,4 C 1,4 C 88 % 1014,2 hPa 0,0 l/m 11,3 km/h (2 Bft) S-SW 202 0 min 0,000 mm 0 W/m -0,4 C -2,9 C 25,7 km/h (4 Bft) 100 %
31.01.2022 05:00 1,6 C 1,4 C 1,6 C 88 % 1013,8 hPa 0,0 l/m 12,9 km/h (3 Bft) S-SW 202 0 min 0,025 mm 0 W/m -0,2 C -3,8 C 22,5 km/h (4 Bft) 100 %
31.01.2022 05:10 1,8 C 1,6 C 1,8 C 87 % 1013,6 hPa 0,0 l/m 11,3 km/h (2 Bft) SW 225 0 min 0,000 mm 0 W/m -0,1 C -2,4 C 27,4 km/h (4 Bft) 100 %
31.01.2022 05:20 1,9 C 1,8 C 1,9 C 87 % 1013,4 hPa 0,0 l/m 9,7 km/h (2 Bft) SW 225 0 min 0,000 mm 0 W/m -0,0 C -1,1 C 22,5 km/h (4 Bft) 100 %
31.01.2022 05:30 2,1 C 1,9 C 2,1 C 86 % 1013,0 hPa 0,0 l/m 11,3 km/h (2 Bft) SW 225 0 min 0,000 mm 0 W/m 0,0 C -2,1 C 24,1 km/h (4 Bft) 100 %
31.01.2022 05:40 2,2 C 2,1 C 2,2 C 86 % 1012,5 hPa 0,0 l/m 9,7 km/h (2 Bft) SW 225 0 min 0,000 mm 0 W/m 0,1 C -0,8 C 20,9 km/h (4 Bft) 100 %
31.01.2022 05:50 2,1 C 2,1 C 2,2 C 86 % 1012,1 hPa 0,0 l/m 9,7 km/h (2 Bft) S-SW 202 0 min 0,000 mm 0 W/m 0,0 C -0,9 C 19,3 km/h (3 Bft) 100 %
31.01.2022 06:00 2,1 C 2,1 C 2,2 C 86 % 1012,0 hPa 0,0 l/m 6,4 km/h (2 Bft) S-SW 202 0 min 0,025 mm 0 W/m 0,0 C 2,1 C 17,7 km/h (3 Bft) 90 %
31.01.2022 06:10 2,2 C 2,1 C 2,2 C 86 % 1011,6 hPa 0,0 l/m 8,0 km/h (2 Bft) SW 225 0 min 0,000 mm 0 W/m 0,1 C 0,7 C 19,3 km/h (3 Bft) 100 %
31.01.2022 06:20 2,4 C 2,2 C 2,4 C 86 % 1011,3 hPa 0,0 l/m 11,3 km/h (2 Bft) SW 225 0 min 0,000 mm 0 W/m 0,3 C -1,8 C 27,4 km/h (4 Bft) 100 %
31.01.2022 06:30 2,7 C 2,4 C 2,7 C 85 % 1010,9 hPa 0,0 l/m 11,3 km/h (2 Bft) S-SW 202 0 min 0,000 mm 0 W/m 0,4 C -1,4 C 27,4 km/h (4 Bft) 100 %
31.01.2022 06:40 2,7 C 2,7 C 2,7 C 86 % 1010,7 hPa 0,0 l/m 8,0 km/h (2 Bft) SW 225 0 min 0,000 mm 0 W/m 0,6 C 1,2 C 22,5 km/h (4 Bft) 100 %
31.01.2022 06:50 2,7 C 2,7 C 2,7 C 86 % 1010,3 hPa 0,0 l/m 11,3 km/h (2 Bft) S-SW 202 0 min 0,000 mm 0 W/m 0,6 C -1,4 C 27,4 km/h (4 Bft) 100 %
31.01.2022 07:00 2,7 C 2,7 C 2,7 C 87 % 1010,3 hPa 0,1 l/m 8,0 km/h (2 Bft) W-SW 247 0 min 0,025 mm 0 W/m 0,8 C 1,2 C 32,2 km/h (5 Bft) 100 %
31.01.2022 07:10 2,6 C 2,6 C 2,7 C 94 % 1010,3 hPa 0,2 l/m 14,5 km/h (3 Bft) SW 225 0 min 0,000 mm 0 W/m 1,7 C -3,5 C 43,5 km/h (6 Bft) 100 %
31.01.2022 07:20 2,4 C 2,4 C 2,7 C 90 % 1010,3 hPa 0,4 l/m 16,1 km/h (3 Bft) W-SW 247 0 min 0,000 mm 0 W/m 0,9 C -4,7 C 33,8 km/h (5 Bft) 100 %
31.01.2022 07:30 2,3 C 2,3 C 2,4 C 91 % 1010,3 hPa 0,2 l/m 14,5 km/h (3 Bft) SW 225 0 min 0,000 mm 0 W/m 1,0 C -3,9 C 45,1 km/h (6 Bft) 100 %
31.01.2022 07:40 2,1 C 2,1 C 2,3 C 91 % 1010,3 hPa 0,4 l/m 12,9 km/h (3 Bft) W-SW 247 0 min 0,000 mm 0 W/m 0,8 C -3,2 C 30,6 km/h (5 Bft) 91 %
31.01.2022 07:50 1,9 C 1,9 C 2,1 C 92 % 1010,3 hPa 0,4 l/m 14,5 km/h (3 Bft) W-SW 247 0 min 0,000 mm 0 W/m 0,7 C -4,4 C 32,2 km/h (5 Bft) 99 %
31.01.2022 08:00 2,0 C 1,9 C 2,0 C 92 % 1010,1 hPa 0,2 l/m 12,9 km/h (3 Bft) W 270 0 min 0,000 mm 0 W/m 0,8 C -3,3 C 32,2 km/h (5 Bft) 100 %
31.01.2022 08:10 2,2 C 2,0 C 2,2 C 92 % 1010,1 hPa 0,2 l/m 14,5 km/h (3 Bft) W-SW 247 0 min 0,000 mm 0 W/m 1,0 C -4,0 C 33,8 km/h (5 Bft) 100 %
31.01.2022 08:20 2,2 C 2,2 C 2,3 C 92 % 1010,1 hPa 0,4 l/m 16,1 km/h (3 Bft) W-SW 247 0 min 0,000 mm 0 W/m 1,0 C -4,9 C 30,6 km/h (5 Bft) 100 %
31.01.2022 08:30 2,2 C 2,2 C 2,3 C 92 % 1010,1 hPa 0,2 l/m 14,5 km/h (3 Bft) W-SW 247 0 min 0,000 mm 0 W/m 1,0 C -4,0 C 43,5 km/h (6 Bft) 100 %
31.01.2022 08:40 2,2 C 2,2 C 2,2 C 92 % 1010,0 hPa 0,2 l/m 19,3 km/h (3 Bft) W-SW 247 0 min 0,000 mm 0 W/m 1,0 C -6,5 C 41,8 km/h (6 Bft) 100 %
31.01.2022 08:50 2,4 C 2,2 C 2,4 C 93 % 1010,2 hPa 0,2 l/m 16,1 km/h (3 Bft) W 270 0 min 0,000 mm 0 W/m 1,4 C -4,7 C 40,2 km/h (6 Bft) 100 %
31.01.2022 09:00 2,5 C 2,4 C 2,5 C 93 % 1010,2 hPa 0,1 l/m 14,5 km/h (3 Bft) W 270 0 min 0,000 mm 0 W/m 1,5 C -3,7 C 33,8 km/h (5 Bft) 100 %
31.01.2022 09:10 2,5 C 2,5 C 2,5 C 92 % 1010,1 hPa 0,0 l/m 11,3 km/h (2 Bft) W-NW 292 0 min 0,000 mm 5 W/m 1,3 C -1,6 C 30,6 km/h (5 Bft) 90 %
31.01.2022 09:20 2,7 C 2,5 C 2,7 C 92 % 1010,1 hPa 0,0 l/m 19,3 km/h (3 Bft) W 270 0 min 0,000 mm 12 W/m 1,5 C -5,8 C 41,8 km/h (6 Bft) 100 %
31.01.2022 09:30 2,7 C 2,7 C 2,7 C 92 % 1009,9 hPa 0,0 l/m 19,3 km/h (3 Bft) W-SW 247 0 min 0,000 mm 23 W/m 1,5 C -5,8 C 40,2 km/h (6 Bft) 100 %
31.01.2022 09:40 2,8 C 2,7 C 2,8 C 92 % 1009,8 hPa 0,0 l/m 19,3 km/h (3 Bft) W-SW 247 0 min 0,000 mm 18 W/m 1,6 C -5,7 C 46,7 km/h (6 Bft) 100 %
31.01.2022 09:50 2,8 C 2,8 C 2,8 C 92 % 1009,8 hPa 0,0 l/m 9,7 km/h (2 Bft) W-SW 247 0 min 0,000 mm 40 W/m 1,6 C -0,1 C 30,6 km/h (5 Bft) 100 %
31.01.2022 10:00 2,8 C 2,8 C 2,8 C 92 % 1009,5 hPa 0,0 l/m 9,7 km/h (2 Bft) W-SW 247 0 min 0,025 mm 67 W/m 1,6 C -0,1 C 32,2 km/h (5 Bft) 100 %
31.01.2022 10:10 2,9 C 2,8 C 2,9 C 92 % 1009,6 hPa 0,0 l/m 9,7 km/h (2 Bft) W 270 0 min 0,000 mm 25 W/m 1,7 C -0,0 C 29,0 km/h (5 Bft) 100 %
31.01.2022 10:20 3,0 C 2,9 C 3,1 C 92 % 1009,6 hPa 0,0 l/m 14,5 km/h (3 Bft) W 270 0 min 0,000 mm 54 W/m 1,8 C -3,1 C 41,8 km/h (6 Bft) 100 %
31.01.2022 10:30 3,1 C 3,1 C 3,1 C 92 % 1009,6 hPa 0,0 l/m 12,9 km/h (3 Bft) W-SW 247 0 min 0,000 mm 54 W/m 1,9 C -2,0 C 30,6 km/h (5 Bft) 100 %
31.01.2022 10:40 3,2 C 3,1 C 3,2 C 92 % 1009,6 hPa 0,0 l/m 14,5 km/h (3 Bft) W 270 0 min 0,000 mm 123 W/m 2,0 C -2,8 C 38,6 km/h (5 Bft) 100 %
31.01.2022 10:50 3,3 C 3,2 C 3,3 C 91 % 1009,3 hPa 0,0 l/m 14,5 km/h (3 Bft) W 270 0 min 0,000 mm 127 W/m 2,0 C -2,7 C 35,4 km/h (5 Bft) 94 %
31.01.2022 11:00 3,4 C 3,3 C 3,4 C 91 % 1009,2 hPa 0,0 l/m 12,9 km/h (3 Bft) W-SW 247 0 min 0,025 mm 67 W/m 2,1 C -1,7 C 35,4 km/h (5 Bft) 91 %
31.01.2022 11:10 3,5 C 3,4 C 3,5 C 91 % 1009,4 hPa 0,0 l/m 14,5 km/h (3 Bft) W-SW 247 0 min 0,000 mm 91 W/m 2,2 C -2,5 C 32,2 km/h (5 Bft) 99 %
31.01.2022 11:20 3,6 C 3,5 C 3,6 C 91 % 1009,5 hPa 0,1 l/m 17,7 km/h (3 Bft) W-SW 247 0 min 0,000 mm 86 W/m 2,3 C -4,0 C 40,2 km/h (6 Bft) 97 %
31.01.2022 11:30 3,5 C 3,5 C 3,6 C 91 % 1009,3 hPa 0,2 l/m 17,7 km/h (3 Bft) W-SW 247 0 min 0,000 mm 90 W/m 2,2 C -4,1 C 38,6 km/h (5 Bft) 98 %
31.01.2022 11:50 3,4 C 3,4 C 3,6 C 91 % 1009,2 hPa 0,2 l/m 21,7 km/h (4 Bft) W 265 0 min 0,002 mm 60 W/m 2,1 C -5,9 C 40,2 km/h (6 Bft) 99 %
31.01.2022 12:00 3,4 C 3,4 C 3,4 C 91 % 1009,1 hPa 0,2 l/m 18,1 km/h (3 Bft) W 262 0 min 0,025 mm 33 W/m 2,1 C -4,4 C 38,6 km/h (5 Bft) 91 %
31.01.2022 12:10 3,6 C 3,4 C 3,6 C 91 % 1008,8 hPa 0,2 l/m 16,1 km/h (3 Bft) S-SW 213 0 min 0,000 mm 97 W/m 2,3 C -3,2 C 38,6 km/h (5 Bft) 100 %
31.01.2022 12:20 3,7 C 3,6 C 3,7 C 90 % 1009,0 hPa 0,2 l/m 17,6 km/h (3 Bft) W-SW 247 0 min 0,000 mm 70 W/m 2,2 C -3,8 C 37,0 km/h (5 Bft) 100 %
31.01.2022 12:30 3,6 C 3,6 C 3,7 C 90 % 1009,1 hPa 0,4 l/m 18,2 km/h (3 Bft) W 281 0 min 0,000 mm 42 W/m 2,1 C -4,2 C 37,0 km/h (5 Bft) 100 %
31.01.2022 12:40 3,6 C 3,6 C 3,6 C 91 % 1008,9 hPa 0,2 l/m 10,4 km/h (2 Bft) W-SW 252 0 min 0,000 mm 40 W/m 2,3 C 0,2 C 29,0 km/h (5 Bft) 100 %
31.01.2022 12:50 3,6 C 3,6 C 3,6 C 90 % 1008,8 hPa 0,2 l/m 16,2 km/h (3 Bft) SW 222 0 min 0,000 mm 39 W/m 2,1 C -3,2 C 38,6 km/h (5 Bft) 98 %
31.01.2022 13:00 3,6 C 3,6 C 3,6 C 90 % 1008,9 hPa 0,2 l/m 16,2 km/h (3 Bft) W 264 0 min 0,051 mm 44 W/m 2,1 C -3,2 C 35,4 km/h (5 Bft) 93 %
31.01.2022 13:10 3,5 C 3,5 C 3,6 C 90 % 1008,6 hPa 0,2 l/m 13,3 km/h (3 Bft) W 271 0 min 0,000 mm 70 W/m 2,0 C -1,8 C 30,6 km/h (5 Bft) 100 %
31.01.2022 13:20 3,5 C 3,5 C 3,6 C 89 % 1008,7 hPa 0,2 l/m 19,4 km/h (3 Bft) W-SW 241 0 min 0,000 mm 51 W/m 1,9 C -4,9 C 37,0 km/h (5 Bft) 100 %
31.01.2022 13:30 3,6 C 3,5 C 3,6 C 90 % 1008,5 hPa 0,2 l/m 17,8 km/h (3 Bft) W-SW 248 0 min 0,000 mm 51 W/m 2,1 C -4,0 C 40,2 km/h (6 Bft) 100 %
31.01.2022 13:40 3,5 C 3,5 C 3,6 C 90 % 1008,5 hPa 0,2 l/m 10,5 km/h (2 Bft) W-NW 302 0 min 0,000 mm 47 W/m 2,0 C 0,1 C 29,0 km/h (5 Bft) 100 %
31.01.2022 13:50 3,5 C 3,5 C 3,6 C 90 % 1008,4 hPa 0,2 l/m 17,9 km/h (3 Bft) W 261 0 min 0,000 mm 44 W/m 2,0 C -4,2 C 37,0 km/h (5 Bft) 100 %
31.01.2022 14:00 3,5 C 3,4 C 3,5 C 90 % 1008,5 hPa 0,4 l/m 14,8 km/h (3 Bft) W-SW 253 0 min 0,026 mm 26 W/m 2,0 C -2,6 C 30,6 km/h (5 Bft) 100 %
31.01.2022 14:10 3,4 C 3,4 C 3,5 C 90 % 1008,4 hPa 0,4 l/m 18,1 km/h (3 Bft) W 269 0 min 0,000 mm 25 W/m 1,9 C -4,4 C 40,2 km/h (6 Bft) 100 %
31.01.2022 14:20 3,3 C 3,3 C 3,4 C 90 % 1008,5 hPa 0,4 l/m 19,6 km/h (3 Bft) W-NW 290 0 min 0,000 mm 30 W/m 1,8 C -5,2 C 40,2 km/h (6 Bft) 100 %
31.01.2022 14:30 3,2 C 3,2 C 3,3 C 91 % 1008,6 hPa 0,4 l/m 18,1 km/h (3 Bft) NW 320 0 min 0,000 mm 26 W/m 1,9 C -4,7 C 41,8 km/h (6 Bft) 100 %
31.01.2022 14:40 3,0 C 3,0 C 3,2 C 91 % 1008,5 hPa 0,4 l/m 13,4 km/h (3 Bft) W-SW 255 0 min 0,000 mm 18 W/m 1,7 C -2,4 C 33,8 km/h (5 Bft) 91 %
31.01.2022 14:50 2,9 C 2,9 C 3,0 C 92 % 1008,5 hPa 0,4 l/m 14,9 km/h (3 Bft) W-NW 300 0 min 0,000 mm 26 W/m 1,7 C -3,4 C 33,8 km/h (5 Bft) 98 %
31.01.2022 15:00 2,8 C 2,8 C 2,9 C 92 % 1008,5 hPa 0,4 l/m 11,6 km/h (2 Bft) W-NW 302 0 min 0,025 mm 23 W/m 1,6 C -1,5 C 30,6 km/h (5 Bft) 99 %
31.01.2022 15:10 2,8 C 2,8 C 2,8 C 92 % 1008,6 hPa 0,4 l/m 13,4 km/h (3 Bft) W 261 0 min 0,000 mm 23 W/m 1,6 C -2,7 C 38,6 km/h (5 Bft) 99 %
31.01.2022 15:20 2,9 C 2,8 C 2,9 C 92 % 1008,9 hPa 0,2 l/m 12,3 km/h (3 Bft) W-NW 294 0 min 0,000 mm 23 W/m 1,7 C -1,9 C 29,0 km/h (5 Bft) 100 %
31.01.2022 15:30 2,9 C 2,9 C 2,9 C 92 % 1008,9 hPa 0,0 l/m 12,1 km/h (2 Bft) W 273 0 min 0,000 mm 28 W/m 1,7 C -1,7 C 30,6 km/h (5 Bft) 100 %
31.01.2022 15:40 2,9 C 2,9 C 2,9 C 92 % 1009,1 hPa 0,0 l/m 7,0 km/h (2 Bft) W-SW 240 0 min 0,000 mm 18 W/m 1,7 C 2,3 C 27,4 km/h (4 Bft) 99 %
31.01.2022 15:50 2,9 C 2,9 C 2,9 C 92 % 1009,3 hPa 0,0 l/m 7,5 km/h (2 Bft) NW 311 0 min 0,000 mm 19 W/m 1,7 C 1,9 C 32,2 km/h (5 Bft) 99 %
31.01.2022 16:00 2,9 C 2,9 C 2,9 C 92 % 1009,4 hPa 0,1 l/m 9,9 km/h (2 Bft) W 263 0 min 0,025 mm 16 W/m 1,7 C -0,2 C 30,6 km/h (5 Bft) 100 %
31.01.2022 16:10 2,8 C 2,8 C 2,9 C 92 % 1009,5 hPa 0,0 l/m 8,6 km/h (2 Bft) W-NW 294 0 min 0,000 mm 12 W/m 1,6 C 0,8 C 24,1 km/h (4 Bft) 99 %
31.01.2022 16:20 2,8 C 2,8 C 2,8 C 92 % 1009,7 hPa 0,0 l/m 9,9 km/h (2 Bft) W-NW 300 0 min 0,000 mm 7 W/m 1,6 C -0,3 C 29,0 km/h (5 Bft) 99 %
31.01.2022 16:30 2,9 C 2,8 C 2,9 C 92 % 1009,7 hPa 0,0 l/m 16,6 km/h (3 Bft) W-NW 300 0 min 0,000 mm 7 W/m 1,7 C -4,3 C 32,2 km/h (5 Bft) 99 %
31.01.2022 16:40 3,1 C 2,9 C 3,1 C 91 % 1009,8 hPa 0,0 l/m 14,6 km/h (3 Bft) W-NW 298 0 min 0,000 mm 5 W/m 1,8 C -3,0 C 27,4 km/h (4 Bft) 98 %
31.01.2022 16:50 3,2 C 3,1 C 3,2 C 91 % 1010,0 hPa 0,0 l/m 14,4 km/h (3 Bft) W-NW 292 0 min 0,000 mm 0 W/m 1,9 C -2,8 C 32,2 km/h (5 Bft) 99 %
31.01.2022 17:00 3,3 C 3,2 C 3,3 C 90 % 1010,3 hPa 0,2 l/m 12,9 km/h (3 Bft) NW 304 0 min 0,000 mm 0 W/m 1,8 C -1,8 C 37,0 km/h (5 Bft) 100 %
31.01.2022 17:10 3,3 C 3,3 C 3,3 C 90 % 1010,3 hPa 0,0 l/m 12,4 km/h (3 Bft) W-NW 299 0 min 0,000 mm 0 W/m 1,8 C -1,5 C 29,0 km/h (5 Bft) 99 %
31.01.2022 17:20 3,4 C 3,3 C 3,4 C 89 % 1010,3 hPa 0,0 l/m 17,6 km/h (3 Bft) W-NW 299 0 min 0,000 mm 0 W/m 1,8 C -4,2 C 35,4 km/h (5 Bft) 100 %
31.01.2022 17:30 3,4 C 3,3 C 3,4 C 88 % 1010,3 hPa 0,0 l/m 15,8 km/h (3 Bft) W 275 0 min 0,000 mm 0 W/m 1,6 C -3,3 C 30,6 km/h (5 Bft) 100 %
31.01.2022 17:40 3,4 C 3,4 C 3,5 C 88 % 1010,5 hPa 0,0 l/m 14,8 km/h (3 Bft) NW 311 0 min 0,000 mm 0 W/m 1,6 C -2,8 C 33,8 km/h (5 Bft) 100 %
31.01.2022 17:50 3,5 C 3,4 C 3,5 C 88 % 1010,6 hPa 0,0 l/m 16,7 km/h (3 Bft) W 267 0 min 0,000 mm 0 W/m 1,7 C -3,6 C 40,2 km/h (6 Bft) 99 %
31.01.2022 18:00 3,5 C 3,5 C 3,5 C 87 % 1010,9 hPa 0,0 l/m 17,2 km/h (3 Bft) W-NW 301 0 min 0,026 mm 0 W/m 1,5 C -3,9 C 38,6 km/h (5 Bft) 97 %
31.01.2022 18:10 3,5 C 3,5 C 3,5 C 87 % 1010,9 hPa 0,0 l/m 14,5 km/h (3 Bft) NW 306 0 min 0,000 mm 0 W/m 1,5 C -2,5 C 32,2 km/h (5 Bft) 97 %
31.01.2022 18:20 3,5 C 3,5 C 3,5 C 87 % 1011,2 hPa 0,0 l/m 13,2 km/h (3 Bft) W-NW 299 0 min 0,000 mm 0 W/m 1,5 C -1,7 C 30,6 km/h (5 Bft) 97 %
31.01.2022 18:30 3,5 C 3,5 C 3,5 C 87 % 1011,4 hPa 0,0 l/m 14,5 km/h (3 Bft) W-NW 298 0 min 0,000 mm 0 W/m 1,5 C -2,5 C 32,2 km/h (5 Bft) 97 %
31.01.2022 18:40 3,4 C 3,4 C 3,5 C 87 % 1011,4 hPa 0,0 l/m 17,1 km/h (3 Bft) W-SW 252 0 min 0,000 mm 0 W/m 1,4 C -3,9 C 35,4 km/h (5 Bft) 90 %
31.01.2022 18:50 3,4 C 3,4 C 3,4 C 88 % 1011,8 hPa 0,0 l/m 13,6 km/h (3 Bft) W-NW 292 0 min 0,000 mm 0 W/m 1,6 C -2,1 C 33,8 km/h (5 Bft) 98 %
31.01.2022 19:00 3,4 C 3,4 C 3,4 C 88 % 1011,8 hPa 0,0 l/m 14,2 km/h (3 Bft) W 276 0 min 0,025 mm 0 W/m 1,6 C -2,4 C 35,4 km/h (5 Bft) 97 %
31.01.2022 19:10 3,3 C 3,3 C 3,4 C 88 % 1012,0 hPa 0,0 l/m 16,5 km/h (3 Bft) W-NW 302 0 min 0,000 mm 0 W/m 1,5 C -3,8 C 32,2 km/h (5 Bft) 98 %
31.01.2022 19:20 3,3 C 3,3 C 3,3 C 89 % 1012,0 hPa 0,2 l/m 18,7 km/h (3 Bft) W 279 0 min 0,000 mm 0 W/m 1,7 C -4,8 C 41,8 km/h (6 Bft) 97 %
31.01.2022 19:30 3,2 C 3,2 C 3,3 C 89 % 1012,2 hPa 0,1 l/m 12,6 km/h (3 Bft) W-NW 292 0 min 0,000 mm 0 W/m 1,6 C -1,7 C 30,6 km/h (5 Bft) 97 %
31.01.2022 19:40 3,2 C 3,2 C 3,2 C 89 % 1012,3 hPa 0,0 l/m 15,9 km/h (3 Bft) W-NW 288 0 min 0,000 mm 0 W/m 1,6 C -3,6 C 35,4 km/h (5 Bft) 98 %
31.01.2022 19:50 3,2 C 3,1 C 3,2 C 90 % 1012,3 hPa 0,0 l/m 10,5 km/h (2 Bft) W 268 0 min 0,000 mm 0 W/m 1,7 C -0,3 C 29,0 km/h (5 Bft) 97 %
31.01.2022 20:00 3,1 C 3,1 C 3,2 C 90 % 1012,5 hPa 0,0 l/m 6,1 km/h (2 Bft) W 273 0 min 0,026 mm 0 W/m 1,6 C 3,1 C 25,7 km/h (4 Bft) 98 %
31.01.2022 20:10 3,0 C 3,0 C 3,1 C 91 % 1012,6 hPa 0,2 l/m 11,5 km/h (2 Bft) NW 306 0 min 0,000 mm 0 W/m 1,7 C -1,2 C 30,6 km/h (5 Bft) 97 %
31.01.2022 20:20 2,9 C 2,9 C 3,0 C 91 % 1012,7 hPa 0,1 l/m 7,7 km/h (2 Bft) W-NW 292 0 min 0,000 mm 0 W/m 1,6 C 1,7 C 24,1 km/h (4 Bft) 90 %
31.01.2022 20:30 2,9 C 2,9 C 2,9 C 91 % 1013,0 hPa 0,2 l/m 13,5 km/h (3 Bft) W 276 0 min 0,000 mm 0 W/m 1,6 C -2,6 C 29,0 km/h (5 Bft) 97 %
31.01.2022 20:40 2,8 C 2,8 C 2,9 C 92 % 1013,2 hPa 0,0 l/m 9,1 km/h (2 Bft) NW 306 0 min 0,000 mm 0 W/m 1,6 C 0,4 C 30,6 km/h (5 Bft) 97 %
31.01.2022 20:50 2,8 C 2,8 C 2,8 C 92 % 1013,0 hPa 0,0 l/m 9,0 km/h (2 Bft) W 261 0 min 0,000 mm 0 W/m 1,6 C 0,4 C 29,0 km/h (5 Bft) 98 %
31.01.2022 21:00 2,7 C 2,7 C 2,8 C 92 % 1013,2 hPa 0,0 l/m 9,9 km/h (2 Bft) W 274 0 min 0,000 mm 0 W/m 1,5 C -0,4 C 27,4 km/h (4 Bft) 98 %
31.01.2022 21:10 2,6 C 2,6 C 2,7 C 92 % 1013,4 hPa 0,2 l/m 8,0 km/h (2 Bft) W 270 0 min 0,000 mm 0 W/m 1,4 C 1,1 C 25,7 km/h (4 Bft) 100 %
31.01.2022 21:20 2,6 C 2,6 C 2,6 C 92 % 1013,5 hPa 0,0 l/m 8,0 km/h (2 Bft) W 270 0 min 0,000 mm 0 W/m 1,4 C 1,1 C 27,4 km/h (4 Bft) 100 %
31.01.2022 21:30 2,5 C 2,5 C 2,6 C 92 % 1013,5 hPa 0,2 l/m 6,4 km/h (2 Bft) W-NW 292 0 min 0,000 mm 0 W/m 1,3 C 2,5 C 16,1 km/h (3 Bft) 100 %
31.01.2022 21:40 2,4 C 2,4 C 2,5 C 93 % 1013,8 hPa 0,2 l/m 6,4 km/h (2 Bft) W 270 0 min 0,000 mm 0 W/m 1,4 C 2,4 C 20,9 km/h (4 Bft) 100 %
31.01.2022 21:50 2,3 C 2,3 C 2,4 C 93 % 1013,9 hPa 0,2 l/m 9,7 km/h (2 Bft) W 270 0 min 0,000 mm 0 W/m 1,3 C -0,7 C 25,7 km/h (4 Bft) 100 %
31.01.2022 22:00 2,3 C 2,3 C 2,3 C 92 % 1014,0 hPa 0,0 l/m 9,7 km/h (2 Bft) W 270 0 min 0,000 mm 0 W/m 1,1 C -0,7 C 32,2 km/h (5 Bft) 100 %
31.01.2022 22:10 2,2 C 2,2 C 2,3 C 93 % 1013,9 hPa 0,2 l/m 9,7 km/h (2 Bft) W 270 0 min 0,000 mm 0 W/m 1,2 C -0,8 C 25,7 km/h (4 Bft) 100 %
31.01.2022 22:20 2,2 C 2,2 C 2,2 C 93 % 1014,1 hPa 0,0 l/m 9,7 km/h (2 Bft) W 270 0 min 0,000 mm 0 W/m 1,2 C -0,8 C 25,7 km/h (4 Bft) 100 %
31.01.2022 22:30 2,2 C 2,2 C 2,2 C 93 % 1014,1 hPa 0,2 l/m 6,4 km/h (2 Bft) W 270 0 min 0,000 mm 0 W/m 1,2 C 2,2 C 22,5 km/h (4 Bft) 100 %
31.01.2022 22:40 2,2 C 2,2 C 2,2 C 93 % 1014,1 hPa 0,0 l/m 6,4 km/h (2 Bft) W 270 0 min 0,000 mm 0 W/m 1,2 C 2,2 C 24,1 km/h (4 Bft) 100 %
31.01.2022 22:50 2,3 C 2,2 C 2,3 C 92 % 1014,2 hPa 0,2 l/m 9,7 km/h (2 Bft) W-NW 292 0 min 0,000 mm 0 W/m 1,1 C -0,7 C 29,0 km/h (5 Bft) 89 %
31.01.2022 23:00 2,3 C 2,3 C 2,3 C 92 % 1014,3 hPa 0,2 l/m 12,9 km/h (3 Bft) W-NW 292 0 min 0,000 mm 0 W/m 1,1 C -2,9 C 27,4 km/h (4 Bft) 100 %
31.01.2022 23:10 2,3 C 2,3 C 2,3 C 92 % 1014,5 hPa 0,4 l/m 11,3 km/h (2 Bft) W-NW 292 0 min 0,000 mm 0 W/m 1,1 C -1,9 C 32,2 km/h (5 Bft) 100 %
31.01.2022 23:20 2,3 C 2,3 C 2,3 C 92 % 1014,5 hPa 0,0 l/m 14,5 km/h (3 Bft) W-NW 292 0 min 0,000 mm 0 W/m 1,1 C -3,9 C 32,2 km/h (5 Bft) 100 %
31.01.2022 23:30 2,3 C 2,3 C 2,3 C 93 % 1014,9 hPa 0,0 l/m 12,9 km/h (3 Bft) W-NW 292 0 min 0,000 mm 0 W/m 1,3 C -2,9 C 37,0 km/h (5 Bft) 100 %
31.01.2022 23:40 2,4 C 2,3 C 2,4 C 92 % 1015,1 hPa 0,2 l/m 12,9 km/h (3 Bft) W-NW 292 0 min 0,000 mm 0 W/m 1,2 C -2,8 C 27,4 km/h (4 Bft) 100 %
31.01.2022 23:50 2,4 C 2,4 C 2,4 C 93 % 1015,1 hPa 0,0 l/m 11,3 km/h (2 Bft) W-NW 292 0 min 0,000 mm 0 W/m 1,4 C -1,8 C 22,5 km/h (4 Bft) 100 %
_ Min-Zeit 00:20 00:20 00:20 06:30 13:50 - 01:20 - - - - - 00:10 08:40 02:00 22:50
Minimum _ 0,0 C 0,0 C 0,1 C 85 % 1008,4 hPa - 1,6 km/h (1 Bft) - - - - - -1,5 C -6,5 C 3,2 km/h (1 Bft) 89 %
_ Max-Zeit 12:20 12:20 12:20 07:10 00:10 07:20 11:50 - - 00:00 13:00 10:50 11:20 20:00 09:40 00:00
Maximum _ 3,7 C 3,6 C 3,7 C 94 % 1021,5 hPa 0,4 l/m 21,7 km/h
W (4 Bft)
- - 0 min 0,051 mm 127 W/m 2,3 C 3,1 C 46,7 km/h
W (6 Bft)
100 %
Durchschnitt _ 2,4 C 2,3 C 2,4 C 90 % 1012,4 hPa #13,0 l/m 11,7 km/h (2 Bft) W - #0 min. #0,356 mm 42 W/m 0,9 C -1,9 C 28,1 km/h (4 Bft) 99 %
PRIVATE WETTERSTATION BILLIGHEIM-ALLFELD - www.neckar-odenwald-wetter.de - Holger Sonntag